sensor_id;sensor_type;location;lat;lon;timestamp;pressure;altitude;pressure_sealevel;temperature;humidity
21779;BME280;11050;52.222;20.916;2023-07-31T00:00:30;99507.41;;;19.48;100.00
21779;BME280;11050;52.222;20.916;2023-07-31T00:02:56;99504.81;;;19.43;100.00
21779;BME280;11050;52.222;20.916;2023-07-31T00:05:22;99509.06;;;19.41;100.00
21779;BME280;11050;52.222;20.916;2023-07-31T00:07:47;99498.44;;;19.34;100.00
21779;BME280;11050;52.222;20.916;2023-07-31T00:10:13;99500.53;;;19.29;100.00
21779;BME280;11050;52.222;20.916;2023-07-31T00:12:43;99510.19;;;19.31;100.00
21779;BME280;11050;52.222;20.916;2023-07-31T00:15:09;99513.31;;;19.30;100.00
21779;BME280;11050;52.222;20.916;2023-07-31T00:17:37;99508.72;;;19.25;100.00
21779;BME280;11050;52.222;20.916;2023-07-31T00:20:03;99514.63;;;19.24;100.00
21779;BME280;11050;52.222;20.916;2023-07-31T00:22:29;99513.50;;;19.25;100.00
21779;BME280;11050;52.222;20.916;2023-07-31T00:24:56;99511.84;;;19.24;100.00
21779;BME280;11050;52.222;20.916;2023-07-31T00:27:22;99503.97;;;19.26;100.00
21779;BME280;11050;52.222;20.916;2023-07-31T00:29:48;99509.06;;;19.24;100.00
21779;BME280;11050;52.222;20.916;2023-07-31T00:32:14;99510.38;;;19.18;100.00
21779;BME280;11050;52.222;20.916;2023-07-31T00:34:39;99515.63;;;19.19;100.00
21779;BME280;11050;52.222;20.916;2023-07-31T00:37:06;99519.06;;;19.16;100.00
21779;BME280;11050;52.222;20.916;2023-07-31T00:39:34;99498.28;;;19.14;100.00
21779;BME280;11050;52.222;20.916;2023-07-31T00:42:01;99504.34;;;19.07;100.00
21779;BME280;11050;52.222;20.916;2023-07-31T00:44:26;99499.44;;;19.04;100.00
21779;BME280;11050;52.222;20.916;2023-07-31T00:46:53;99497.28;;;19.01;100.00
21779;BME280;11050;52.222;20.916;2023-07-31T00:49:21;99482.22;;;18.93;100.00
21779;BME280;11050;52.222;20.916;2023-07-31T00:51:47;99498.94;;;18.93;100.00
21779;BME280;11050;52.222;20.916;2023-07-31T00:54:13;99488.47;;;18.90;100.00
21779;BME280;11050;52.222;20.916;2023-07-31T00:56:41;99484.19;;;18.84;100.00
21779;BME280;11050;52.222;20.916;2023-07-31T00:59:08;99489.94;;;18.79;100.00
21779;BME280;11050;52.222;20.916;2023-07-31T01:01:33;99480.59;;;18.75;100.00
21779;BME280;11050;52.222;20.916;2023-07-31T01:03:59;99494.66;;;18.70;100.00
21779;BME280;11050;52.222;20.916;2023-07-31T01:09:44;99496.50;;;18.66;100.00
21779;BME280;11050;52.222;20.916;2023-07-31T01:12:15;99507.13;;;18.64;100.00
21779;BME280;11050;52.222;20.916;2023-07-31T01:15:01;99496.50;;;18.66;100.00
21779;BME280;11050;52.222;20.916;2023-07-31T01:17:27;99502.84;;;18.67;100.00
21779;BME280;11050;52.222;20.916;2023-07-31T01:19:55;99495.66;;;18.66;100.00
21779;BME280;11050;52.222;20.916;2023-07-31T01:22:45;99503.19;;;18.57;100.00
21779;BME280;11050;52.222;20.916;2023-07-31T01:28:23;99498.59;;;18.52;100.00
21779;BME280;11050;52.222;20.916;2023-07-31T01:30:50;99497.44;;;18.45;100.00
21779;BME280;11050;52.222;20.916;2023-07-31T01:33:16;99501.69;;;18.42;100.00
21779;BME280;11050;52.222;20.916;2023-07-31T01:35:45;99506.13;;;18.43;100.00
21779;BME280;11050;52.222;20.916;2023-07-31T01:38:11;99502.31;;;18.39;100.00
21779;BME280;11050;52.222;20.916;2023-07-31T01:40:41;99501.31;;;18.35;100.00
21779;BME280;11050;52.222;20.916;2023-07-31T01:43:07;99497.72;;;18.26;100.00
21779;BME280;11050;52.222;20.916;2023-07-31T01:45:33;99501.44;;;18.22;100.00
21779;BME280;11050;52.222;20.916;2023-07-31T01:47:58;99498.38;;;18.23;100.00
21779;BME280;11050;52.222;20.916;2023-07-31T01:50:24;99501.28;;;18.18;100.00
21779;BME280;11050;52.222;20.916;2023-07-31T01:52:50;99500.44;;;18.18;100.00
21779;BME280;11050;52.222;20.916;2023-07-31T01:55:15;99507.94;;;18.09;100.00
21779;BME280;11050;52.222;20.916;2023-07-31T01:57:41;99514.84;;;18.11;100.00
21779;BME280;11050;52.222;20.916;2023-07-31T02:00:07;99505.84;;;18.06;100.00
21779;BME280;11050;52.222;20.916;2023-07-31T02:02:33;99502.88;;;18.02;100.00
21779;BME280;11050;52.222;20.916;2023-07-31T02:04:59;99506.00;;;18.01;100.00
21779;BME280;11050;52.222;20.916;2023-07-31T02:07:25;99512.69;;;17.99;100.00
21779;BME280;11050;52.222;20.916;2023-07-31T02:09:50;99511.69;;;17.95;100.00
21779;BME280;11050;52.222;20.916;2023-07-31T02:12:16;99515.28;;;17.96;100.00
21779;BME280;11050;52.222;20.916;2023-07-31T02:14:42;99518.72;;;17.93;100.00
21779;BME280;11050;52.222;20.916;2023-07-31T02:17:08;99518.22;;;17.91;100.00
21779;BME280;11050;52.222;20.916;2023-07-31T02:19:34;99527.84;;;17.93;100.00
21779;BME280;11050;52.222;20.916;2023-07-31T02:21:59;99527.53;;;17.95;100.00
21779;BME280;11050;52.222;20.916;2023-07-31T02:24:25;99528.34;;;17.95;100.00
21779;BME280;11050;52.222;20.916;2023-07-31T02:26:51;99528.03;;;17.97;100.00
21779;BME280;11050;52.222;20.916;2023-07-31T02:29:16;99531.81;;;18.01;100.00
21779;BME280;11050;52.222;20.916;2023-07-31T02:31:42;99521.19;;;18.03;100.00
21779;BME280;11050;52.222;20.916;2023-07-31T02:34:08;99516.94;;;18.06;100.00
21779;BME280;11050;52.222;20.916;2023-07-31T02:36:33;99534.81;;;18.13;100.00
21779;BME280;11050;52.222;20.916;2023-07-31T02:38:59;99539.72;;;18.16;100.00
21779;BME280;11050;52.222;20.916;2023-07-31T02:41:25;99540.22;;;18.18;100.00
21779;BME280;11050;52.222;20.916;2023-07-31T02:43:50;99539.59;;;18.21;100.00
21779;BME280;11050;52.222;20.916;2023-07-31T02:46:17;99538.94;;;18.24;100.00
21779;BME280;11050;52.222;20.916;2023-07-31T02:48:43;99536.66;;;18.26;100.00
21779;BME280;11050;52.222;20.916;2023-07-31T02:51:08;99529.28;;;18.30;100.00
21779;BME280;11050;52.222;20.916;2023-07-31T02:53:34;99527.34;;;18.31;100.00
21779;BME280;11050;52.222;20.916;2023-07-31T02:56:00;99530.13;;;18.31;100.00
21779;BME280;11050;52.222;20.916;2023-07-31T02:58:25;99526.84;;;18.37;100.00
21779;BME280;11050;52.222;20.916;2023-07-31T03:00:51;99526.53;;;18.39;100.00
21779;BME280;11050;52.222;20.916;2023-07-31T03:03:17;99524.75;;;18.43;100.00
21779;BME280;11050;52.222;20.916;2023-07-31T03:05:42;99538.84;;;18.46;100.00
21779;BME280;11050;52.222;20.916;2023-07-31T03:08:08;99536.56;;;18.48;100.00
21779;BME280;11050;52.222;20.916;2023-07-31T03:10:34;99525.44;;;18.48;100.00
21779;BME280;11050;52.222;20.916;2023-07-31T03:13:00;99526.41;;;18.52;100.00
21779;BME280;11050;52.222;20.916;2023-07-31T03:15:25;99532.31;;;18.51;100.00
21779;BME280;11050;52.222;20.916;2023-07-31T03:17:51;99538.38;;;18.53;100.00
21779;BME280;11050;52.222;20.916;2023-07-31T03:20:17;99536.88;;;18.55;100.00
21779;BME280;11050;52.222;20.916;2023-07-31T03:22:42;99539.53;;;18.60;100.00
21779;BME280;11050;52.222;20.916;2023-07-31T03:25:09;99524.13;;;18.54;100.00
21779;BME280;11050;52.222;20.916;2023-07-31T03:27:35;99538.88;;;18.63;100.00
21779;BME280;11050;52.222;20.916;2023-07-31T03:30:03;99551.81;;;18.68;100.00
21779;BME280;11050;52.222;20.916;2023-07-31T03:32:28;99558.22;;;18.68;100.00
21779;BME280;11050;52.222;20.916;2023-07-31T03:34:54;99552.81;;;18.72;100.00
21779;BME280;11050;52.222;20.916;2023-07-31T03:37:20;99555.75;;;18.75;100.00
21779;BME280;11050;52.222;20.916;2023-07-31T03:39:46;99559.53;;;18.79;100.00
21779;BME280;11050;52.222;20.916;2023-07-31T03:42:11;99558.72;;;18.79;100.00
21779;BME280;11050;52.222;20.916;2023-07-31T03:44:37;99563.31;;;18.83;100.00
21779;BME280;11050;52.222;20.916;2023-07-31T03:47:03;99564.78;;;18.81;100.00
21779;BME280;11050;52.222;20.916;2023-07-31T03:49:29;99567.72;;;18.84;100.00
21779;BME280;11050;52.222;20.916;2023-07-31T03:51:55;99568.56;;;18.85;100.00
21779;BME280;11050;52.222;20.916;2023-07-31T03:54:20;99576.41;;;18.83;100.00
21779;BME280;11050;52.222;20.916;2023-07-31T03:56:46;99579.69;;;18.85;100.00
21779;BME280;11050;52.222;20.916;2023-07-31T03:59:12;99583.47;;;18.89;100.00
21779;BME280;11050;52.222;20.916;2023-07-31T04:01:37;99575.91;;;18.89;100.00
21779;BME280;11050;52.222;20.916;2023-07-31T04:04:03;99578.56;;;18.95;100.00
21779;BME280;11050;52.222;20.916;2023-07-31T04:06:29;99583.78;;;18.96;100.00
21779;BME280;11050;52.222;20.916;2023-07-31T04:08:55;99584.44;;;19.02;100.00
21779;BME280;11050;52.222;20.916;2023-07-31T04:11:20;99595.09;;;19.00;100.00
21779;BME280;11050;52.222;20.916;2023-07-31T04:13:46;99588.84;;;19.03;100.00
21779;BME280;11050;52.222;20.916;2023-07-31T04:16:12;99591.00;;;19.06;100.00
21779;BME280;11050;52.222;20.916;2023-07-31T04:18:38;99591.16;;;19.01;100.00
21779;BME280;11050;52.222;20.916;2023-07-31T04:21:04;99592.31;;;19.00;100.00
21779;BME280;11050;52.222;20.916;2023-07-31T04:23:29;99597.72;;;19.05;100.00
21779;BME280;11050;52.222;20.916;2023-07-31T04:25:55;99598.03;;;19.03;100.00
21779;BME280;11050;52.222;20.916;2023-07-31T04:28:21;99595.25;;;19.03;100.00
21779;BME280;11050;52.222;20.916;2023-07-31T04:30:47;99596.91;;;19.04;100.00
21779;BME280;11050;52.222;20.916;2023-07-31T04:33:13;99595.91;;;19.09;100.00
21779;BME280;11050;52.222;20.916;2023-07-31T04:35:39;99597.56;;;19.10;100.00
21779;BME280;11050;52.222;20.916;2023-07-31T04:38:04;99603.28;;;19.13;100.00
21779;BME280;11050;52.222;20.916;2023-07-31T04:40:30;99600.03;;;19.11;100.00
21779;BME280;11050;52.222;20.916;2023-07-31T04:42:56;99605.41;;;19.16;100.00
21779;BME280;11050;52.222;20.916;2023-07-31T04:45:22;99609.19;;;19.20;100.00
21779;BME280;11050;52.222;20.916;2023-07-31T04:47:47;99601.81;;;19.16;100.00
21779;BME280;11050;52.222;20.916;2023-07-31T04:50:13;99605.28;;;19.21;100.00
21779;BME280;11050;52.222;20.916;2023-07-31T04:52:39;99598.06;;;19.20;100.00
21779;BME280;11050;52.222;20.916;2023-07-31T04:55:05;99600.50;;;19.22;100.00
21779;BME280;11050;52.222;20.916;2023-07-31T04:57:30;99596.06;;;19.29;100.00
21779;BME280;11050;52.222;20.916;2023-07-31T04:59:56;99608.41;;;19.37;100.00
21779;BME280;11050;52.222;20.916;2023-07-31T05:02:22;99599.88;;;19.42;100.00
21779;BME280;11050;52.222;20.916;2023-07-31T05:04:48;99602.84;;;19.45;100.00
21779;BME280;11050;52.222;20.916;2023-07-31T05:07:13;99617.09;;;19.44;100.00
21779;BME280;11050;52.222;20.916;2023-07-31T05:09:39;99615.44;;;19.43;100.00
21779;BME280;11050;52.222;20.916;2023-07-31T05:12:05;99612.50;;;19.39;100.00
21779;BME280;11050;52.222;20.916;2023-07-31T05:14:31;99622.00;;;19.38;100.00
21779;BME280;11050;52.222;20.916;2023-07-31T05:16:57;99614.13;;;19.40;100.00
21779;BME280;11050;52.222;20.916;2023-07-31T05:19:23;99614.31;;;19.44;100.00
21779;BME280;11050;52.222;20.916;2023-07-31T05:21:48;99614.63;;;19.51;100.00
21779;BME280;11050;52.222;20.916;2023-07-31T05:24:14;99622.97;;;19.59;100.00
21779;BME280;11050;52.222;20.916;2023-07-31T05:26:40;99624.25;;;19.70;100.00
21779;BME280;11050;52.222;20.916;2023-07-31T05:29:05;99625.09;;;19.71;100.00
21779;BME280;11050;52.222;20.916;2023-07-31T05:31:31;99627.53;;;19.72;100.00
21779;BME280;11050;52.222;20.916;2023-07-31T05:33:58;99638.69;;;19.72;100.00
21779;BME280;11050;52.222;20.916;2023-07-31T05:36:23;99631.66;;;19.75;100.00
21779;BME280;11050;52.222;20.916;2023-07-31T05:38:49;99639.34;;;19.78;100.00
21779;BME280;11050;52.222;20.916;2023-07-31T05:41:15;99650.34;;;19.83;100.00
21779;BME280;11050;52.222;20.916;2023-07-31T05:43:41;99646.88;;;19.86;100.00
21779;BME280;11050;52.222;20.916;2023-07-31T05:46:09;99642.63;;;19.80;100.00
21779;BME280;11050;52.222;20.916;2023-07-31T05:48:35;99641.78;;;19.88;100.00
21779;BME280;11050;52.222;20.916;2023-07-31T05:51:00;99663.13;;;19.84;100.00
21779;BME280;11050;52.222;20.916;2023-07-31T05:53:26;99655.09;;;19.82;100.00
21779;BME280;11050;52.222;20.916;2023-07-31T05:55:52;99654.41;;;19.85;100.00
21779;BME280;11050;52.222;20.916;2023-07-31T05:58:17;99650.50;;;19.87;100.00
21779;BME280;11050;52.222;20.916;2023-07-31T06:00:43;99662.94;;;19.98;100.00
21779;BME280;11050;52.222;20.916;2023-07-31T06:03:09;99655.88;;;20.00;99.94
21779;BME280;11050;52.222;20.916;2023-07-31T06:05:35;99666.03;;;20.05;100.00
21779;BME280;11050;52.222;20.916;2023-07-31T06:08:01;99675.88;;;20.11;98.81
21779;BME280;11050;52.222;20.916;2023-07-31T06:10:27;99671.59;;;20.13;98.95
21779;BME280;11050;52.222;20.916;2023-07-31T06:12:53;99676.50;;;20.16;99.22
21779;BME280;11050;52.222;20.916;2023-07-31T06:15:19;99673.91;;;20.11;100.00
21779;BME280;11050;52.222;20.916;2023-07-31T06:17:45;99675.72;;;19.99;100.00
21779;BME280;11050;52.222;20.916;2023-07-31T06:20:11;99674.44;;;19.79;100.00
21779;BME280;11050;52.222;20.916;2023-07-31T06:22:37;99668.41;;;19.60;100.00
21779;BME280;11050;52.222;20.916;2023-07-31T06:25:03;99671.69;;;19.45;100.00
21779;BME280;11050;52.222;20.916;2023-07-31T06:27:29;99675.28;;;19.37;100.00
21779;BME280;11050;52.222;20.916;2023-07-31T06:29:54;99662.94;;;19.29;100.00
21779;BME280;11050;52.222;20.916;2023-07-31T06:32:20;99659.00;;;19.22;100.00
21779;BME280;11050;52.222;20.916;2023-07-31T06:34:46;99664.25;;;19.23;100.00
21779;BME280;11050;52.222;20.916;2023-07-31T06:37:12;99663.28;;;19.28;100.00
21779;BME280;11050;52.222;20.916;2023-07-31T06:39:37;99659.22;;;19.34;100.00
21779;BME280;11050;52.222;20.916;2023-07-31T06:42:03;99663.81;;;19.47;100.00
21779;BME280;11050;52.222;20.916;2023-07-31T06:44:29;99684.81;;;19.53;100.00
21779;BME280;11050;52.222;20.916;2023-07-31T06:46:55;99672.34;;;19.59;100.00
21779;BME280;11050;52.222;20.916;2023-07-31T06:49:21;99671.50;;;19.67;100.00
21779;BME280;11050;52.222;20.916;2023-07-31T06:51:47;99669.38;;;19.72;100.00
21779;BME280;11050;52.222;20.916;2023-07-31T06:54:13;99672.31;;;19.76;100.00
21779;BME280;11050;52.222;20.916;2023-07-31T06:56:38;99681.81;;;19.92;100.00
21779;BME280;11050;52.222;20.916;2023-07-31T06:59:04;99677.69;;;20.07;100.00
21779;BME280;11050;52.222;20.916;2023-07-31T07:01:30;99682.09;;;20.16;100.00
21779;BME280;11050;52.222;20.916;2023-07-31T07:03:55;99667.47;;;20.28;100.00
21779;BME280;11050;52.222;20.916;2023-07-31T07:06:22;99679.56;;;20.40;100.00
21779;BME280;11050;52.222;20.916;2023-07-31T07:08:48;99674.94;;;20.53;100.00
21779;BME280;11050;52.222;20.916;2023-07-31T07:11:14;99669.78;;;20.63;98.93
21779;BME280;11050;52.222;20.916;2023-07-31T07:13:40;99677.22;;;20.89;97.90
21779;BME280;11050;52.222;20.916;2023-07-31T07:16:06;99678.00;;;20.98;95.62
21779;BME280;11050;52.222;20.916;2023-07-31T07:18:32;99676.50;;;21.29;94.64
21779;BME280;11050;52.222;20.916;2023-07-31T07:20:57;99680.72;;;21.56;90.10
21779;BME280;11050;52.222;20.916;2023-07-31T07:23:23;99676.72;;;21.65;88.84
21779;BME280;11050;52.222;20.916;2023-07-31T07:25:49;99679.63;;;21.90;88.14
21779;BME280;11050;52.222;20.916;2023-07-31T07:28:16;99685.59;;;22.21;85.03
21779;BME280;11050;52.222;20.916;2023-07-31T07:30:42;99684.44;;;22.34;83.62
21779;BME280;11050;52.222;20.916;2023-07-31T07:33:08;99679.69;;;22.46;81.01
21779;BME280;11050;52.222;20.916;2023-07-31T07:35:35;99668.53;;;22.58;79.87
21779;BME280;11050;52.222;20.916;2023-07-31T07:38:02;99671.91;;;22.76;80.17
21779;BME280;11050;52.222;20.916;2023-07-31T07:40:28;99674.47;;;22.93;77.30
21779;BME280;11050;52.222;20.916;2023-07-31T07:42:54;99675.06;;;22.99;76.87
21779;BME280;11050;52.222;20.916;2023-07-31T07:45:20;99685.94;;;23.00;77.38
21779;BME280;11050;52.222;20.916;2023-07-31T07:47:45;99678.13;;;23.06;76.29
21779;BME280;11050;52.222;20.916;2023-07-31T07:50:11;99678.81;;;23.15;75.96
21779;BME280;11050;52.222;20.916;2023-07-31T07:52:37;99688.59;;;23.09;76.28
21779;BME280;11050;52.222;20.916;2023-07-31T07:55:03;99686.63;;;23.09;74.66
21779;BME280;11050;52.222;20.916;2023-07-31T07:57:29;99692.91;;;23.06;73.44
21779;BME280;11050;52.222;20.916;2023-07-31T07:59:55;99676.59;;;22.96;74.42
21779;BME280;11050;52.222;20.916;2023-07-31T08:02:22;99675.53;;;23.01;75.19
21779;BME280;11050;52.222;20.916;2023-07-31T08:04:48;99684.63;;;23.10;74.77
21779;BME280;11050;52.222;20.916;2023-07-31T08:07:14;99695.16;;;23.13;73.08
21779;BME280;11050;52.222;20.916;2023-07-31T08:09:40;99684.88;;;23.05;73.72
21779;BME280;11050;52.222;20.916;2023-07-31T08:12:06;99672.72;;;23.13;74.06
21779;BME280;11050;52.222;20.916;2023-07-31T08:14:32;99674.22;;;23.34;74.62
21779;BME280;11050;52.222;20.916;2023-07-31T08:16:58;99677.78;;;23.59;71.02
21779;BME280;11050;52.222;20.916;2023-07-31T08:19:24;99676.75;;;23.51;68.68
21779;BME280;11050;52.222;20.916;2023-07-31T08:21:50;99675.06;;;23.63;66.95
21779;BME280;11050;52.222;20.916;2023-07-31T08:24:16;99683.72;;;23.97;65.43
21779;BME280;11050;52.222;20.916;2023-07-31T08:26:42;99679.44;;;24.15;64.73
21779;BME280;11050;52.222;20.916;2023-07-31T08:29:08;99681.84;;;24.29;64.00
21779;BME280;11050;52.222;20.916;2023-07-31T08:31:34;99688.19;;;24.57;62.28
21779;BME280;11050;52.222;20.916;2023-07-31T08:34:00;99682.88;;;24.68;60.91
21779;BME280;11050;52.222;20.916;2023-07-31T08:36:26;99674.56;;;24.71;61.10
21779;BME280;11050;52.222;20.916;2023-07-31T08:38:52;99686.88;;;24.82;59.30
21779;BME280;11050;52.222;20.916;2023-07-31T08:41:17;99680.00;;;24.80;57.30
21779;BME280;11050;52.222;20.916;2023-07-31T08:43:45;99684.06;;;24.82;59.39
21779;BME280;11050;52.222;20.916;2023-07-31T08:46:12;99683.16;;;24.78;58.11
21779;BME280;11050;52.222;20.916;2023-07-31T08:48:42;99694.78;;;24.77;58.39
21779;BME280;11050;52.222;20.916;2023-07-31T08:51:08;99700.19;;;24.85;57.90
21779;BME280;11050;52.222;20.916;2023-07-31T08:53:35;99699.75;;;24.99;56.92
21779;BME280;11050;52.222;20.916;2023-07-31T08:56:01;99690.41;;;25.10;56.68
21779;BME280;11050;52.222;20.916;2023-07-31T08:58:32;99694.53;;;25.32;53.91
21779;BME280;11050;52.222;20.916;2023-07-31T09:01:01;99701.78;;;25.33;53.28
21779;BME280;11050;52.222;20.916;2023-07-31T09:03:33;99698.72;;;25.22;52.73
21779;BME280;11050;52.222;20.916;2023-07-31T09:05:59;99692.91;;;25.31;53.21
21779;BME280;11050;52.222;20.916;2023-07-31T09:08:30;99691.69;;;25.48;51.98
21779;BME280;11050;52.222;20.916;2023-07-31T09:11:00;99689.22;;;25.62;50.96
21779;BME280;11050;52.222;20.916;2023-07-31T09:13:31;99686.41;;;25.62;51.16
21779;BME280;11050;52.222;20.916;2023-07-31T09:15:57;99696.44;;;25.63;50.01
21779;BME280;11050;52.222;20.916;2023-07-31T09:18:23;99702.09;;;25.63;51.58
21779;BME280;11050;52.222;20.916;2023-07-31T09:21:07;99686.69;;;25.57;51.96
21779;BME280;11050;52.222;20.916;2023-07-31T09:23:46;99688.38;;;25.61;51.81
21779;BME280;11050;52.222;20.916;2023-07-31T09:26:35;99688.91;;;25.86;50.36
21779;BME280;11050;52.222;20.916;2023-07-31T09:29:05;99690.31;;;25.95;49.62
21779;BME280;11050;52.222;20.916;2023-07-31T09:31:42;99683.28;;;26.24;49.83
21779;BME280;11050;52.222;20.916;2023-07-31T09:34:09;99697.84;;;26.49;47.28
21779;BME280;11050;52.222;20.916;2023-07-31T09:36:48;99688.53;;;26.67;46.10
21779;BME280;11050;52.222;20.916;2023-07-31T09:39:16;99679.53;;;26.81;45.87
21779;BME280;11050;52.222;20.916;2023-07-31T09:41:46;99685.13;;;26.77;46.02
21779;BME280;11050;52.222;20.916;2023-07-31T09:44:12;99689.59;;;26.82;43.79
21779;BME280;11050;52.222;20.916;2023-07-31T09:46:38;99673.13;;;26.84;44.06
21779;BME280;11050;52.222;20.916;2023-07-31T09:49:13;99692.97;;;26.91;41.78
21779;BME280;11050;52.222;20.916;2023-07-31T09:51:42;99699.34;;;26.84;41.78
21779;BME280;11050;52.222;20.916;2023-07-31T09:54:15;99694.25;;;26.93;41.13
21779;BME280;11050;52.222;20.916;2023-07-31T09:56:48;99677.63;;;27.11;42.36
21779;BME280;11050;52.222;20.916;2023-07-31T09:59:19;99689.44;;;27.46;41.15
21779;BME280;11050;52.222;20.916;2023-07-31T10:01:47;99679.03;;;27.50;41.49
21779;BME280;11050;52.222;20.916;2023-07-31T10:04:14;99679.50;;;27.56;40.03
21779;BME280;11050;52.222;20.916;2023-07-31T10:06:43;99668.03;;;27.71;38.61
21779;BME280;11050;52.222;20.916;2023-07-31T10:09:11;99694.41;;;27.82;39.30
21779;BME280;11050;52.222;20.916;2023-07-31T10:11:46;99680.94;;;27.72;39.28
21779;BME280;11050;52.222;20.916;2023-07-31T10:14:20;99686.59;;;27.72;37.51
21779;BME280;11050;52.222;20.916;2023-07-31T10:16:47;99682.38;;;27.59;37.37
21779;BME280;11050;52.222;20.916;2023-07-31T10:19:12;99673.94;;;27.63;37.20
21779;BME280;11050;52.222;20.916;2023-07-31T10:21:39;99678.50;;;27.71;36.92
21779;BME280;11050;52.222;20.916;2023-07-31T10:24:07;99668.59;;;27.84;36.11
21779;BME280;11050;52.222;20.916;2023-07-31T10:26:37;99674.19;;;28.10;36.96
21779;BME280;11050;52.222;20.916;2023-07-31T10:29:06;99666.66;;;28.25;36.97
21779;BME280;11050;52.222;20.916;2023-07-31T10:31:34;99667.25;;;28.41;36.93
21779;BME280;11050;52.222;20.916;2023-07-31T10:34:00;99668.13;;;28.45;35.83
21779;BME280;11050;52.222;20.916;2023-07-31T10:36:28;99664.72;;;28.65;35.06
21779;BME280;11050;52.222;20.916;2023-07-31T10:38:56;99685.38;;;28.73;33.85
21779;BME280;11050;52.222;20.916;2023-07-31T10:41:29;99671.63;;;28.71;35.17
21779;BME280;11050;52.222;20.916;2023-07-31T10:44:06;99676.66;;;28.52;32.94
21779;BME280;11050;52.222;20.916;2023-07-31T10:46:32;99685.47;;;28.43;34.09
21779;BME280;11050;52.222;20.916;2023-07-31T10:49:01;99665.94;;;28.31;33.64
21779;BME280;11050;52.222;20.916;2023-07-31T10:51:35;99676.63;;;28.48;33.41
21779;BME280;11050;52.222;20.916;2023-07-31T10:54:12;99677.25;;;28.68;32.06
21779;BME280;11050;52.222;20.916;2023-07-31T10:56:38;99666.44;;;28.80;32.32
21779;BME280;11050;52.222;20.916;2023-07-31T10:59:05;99670.03;;;28.74;32.31
21779;BME280;11050;52.222;20.916;2023-07-31T11:01:54;99677.13;;;28.54;32.01
21779;BME280;11050;52.222;20.916;2023-07-31T11:04:25;99666.72;;;28.65;33.09
21779;BME280;11050;52.222;20.916;2023-07-31T11:07:00;99678.91;;;29.16;30.98
21779;BME280;11050;52.222;20.916;2023-07-31T11:09:32;99668.25;;;29.60;29.16
21779;BME280;11050;52.222;20.916;2023-07-31T11:12:01;99683.38;;;29.82;28.69
21779;BME280;11050;52.222;20.916;2023-07-31T11:14:27;99678.53;;;29.86;28.23
21779;BME280;11050;52.222;20.916;2023-07-31T11:16:53;99673.72;;;30.01;28.71
21779;BME280;11050;52.222;20.916;2023-07-31T11:19:23;99675.78;;;30.04;28.56
21779;BME280;11050;52.222;20.916;2023-07-31T11:21:51;99687.91;;;30.01;28.21
21779;BME280;11050;52.222;20.916;2023-07-31T11:24:17;99678.63;;;30.04;28.61
21779;BME280;11050;52.222;20.916;2023-07-31T11:26:53;99679.31;;;29.79;28.67
21779;BME280;11050;52.222;20.916;2023-07-31T11:29:20;99670.97;;;29.36;29.54
21779;BME280;11050;52.222;20.916;2023-07-31T11:31:47;99676.41;;;29.11;30.13
21779;BME280;11050;52.222;20.916;2023-07-31T11:34:14;99669.34;;;28.87;30.46
21779;BME280;11050;52.222;20.916;2023-07-31T11:36:40;99677.44;;;28.89;31.00
21779;BME280;11050;52.222;20.916;2023-07-31T11:39:09;99658.72;;;28.74;30.76
21779;BME280;11050;52.222;20.916;2023-07-31T11:41:35;99661.41;;;28.60;31.38
21779;BME280;11050;52.222;20.916;2023-07-31T11:44:01;99658.41;;;28.46;31.87
21779;BME280;11050;52.222;20.916;2023-07-31T11:46:30;99666.66;;;28.25;32.72
21779;BME280;11050;52.222;20.916;2023-07-31T11:49:00;99662.06;;;28.09;32.45
21779;BME280;11050;52.222;20.916;2023-07-31T11:51:27;99655.56;;;28.05;32.57
21779;BME280;11050;52.222;20.916;2023-07-31T11:53:58;99661.97;;;28.02;32.95
21779;BME280;11050;52.222;20.916;2023-07-31T11:56:26;99649.78;;;27.95;33.43
21779;BME280;11050;52.222;20.916;2023-07-31T11:59:00;99658.06;;;28.11;33.58
21779;BME280;11050;52.222;20.916;2023-07-31T12:01:29;99668.41;;;27.99;34.16
21779;BME280;11050;52.222;20.916;2023-07-31T12:03:56;99652.06;;;27.86;34.21
21779;BME280;11050;52.222;20.916;2023-07-31T12:06:35;99647.72;;;27.92;34.57
21779;BME280;11050;52.222;20.916;2023-07-31T12:09:05;99655.44;;;27.95;35.09
21779;BME280;11050;52.222;20.916;2023-07-31T12:11:50;99643.31;;;27.94;34.97
21779;BME280;11050;52.222;20.916;2023-07-31T12:14:21;99653.66;;;27.83;35.53
21779;BME280;11050;52.222;20.916;2023-07-31T12:16:47;99652.31;;;27.74;35.48
21779;BME280;11050;52.222;20.916;2023-07-31T12:19:19;99647.69;;;27.59;36.39
21779;BME280;11050;52.222;20.916;2023-07-31T12:21:45;99637.47;;;27.47;36.21
21779;BME280;11050;52.222;20.916;2023-07-31T12:24:10;99638.06;;;27.63;37.04
21779;BME280;11050;52.222;20.916;2023-07-31T12:26:36;99635.13;;;27.86;36.29
21779;BME280;11050;52.222;20.916;2023-07-31T12:29:07;99638.81;;;27.90;36.22
21779;BME280;11050;52.222;20.916;2023-07-31T12:31:34;99628.94;;;27.73;36.16
21779;BME280;11050;52.222;20.916;2023-07-31T12:33:59;99621.84;;;27.57;36.54
21779;BME280;11050;52.222;20.916;2023-07-31T12:36:26;99624.00;;;27.37;37.04
21779;BME280;11050;52.222;20.916;2023-07-31T12:38:54;99623.41;;;27.25;37.45
21779;BME280;11050;52.222;20.916;2023-07-31T12:41:22;99623.34;;;27.21;38.07
21779;BME280;11050;52.222;20.916;2023-07-31T12:43:48;99613.28;;;27.24;37.07
21779;BME280;11050;52.222;20.916;2023-07-31T12:46:13;99614.56;;;27.26;36.54
21779;BME280;11050;52.222;20.916;2023-07-31T12:48:41;99607.06;;;27.37;35.95
21779;BME280;11050;52.222;20.916;2023-07-31T12:51:07;99606.69;;;27.72;35.30